This is the latest recevied weather packets stored in our database for station/object JF7ELG-13. If no packets are shown the sender has not sent any weather packets the latest 10 day(s).
| Time | Temp. | Humidity | Pressure | Rain* | Wind** | Luminosity | Snow |
|---|---|---|---|---|---|---|---|
| 1778081616 | 15° C | 84% | 1012.1 hPa | 0 mm | - | - | - |
| 1778080704 | 15.56° C | 84% | 1012.2 hPa | 0 mm | - | - | - |
| 1778078903 | 17.22° C | 77% | 1012.8 hPa | 0 mm | - | - | - |
| 1778078014 | 17.78° C | 75% | 1012.8 hPa | 0 mm | - | - | - |
| 1778077131 | 17.78° C | 75% | 1012.8 hPa | 0 mm | - | - | - |
| 1778076238 | 17.78° C | 76% | 1013 hPa | 0 mm | - | - | - |
| 1778075301 | 17.78° C | 76% | 1013.1 hPa | 0 mm | - | - | - |
| 1778074418 | 17.78° C | 77% | 1013 hPa | 0 mm | - | - | - |
| 1778073525 | 17.78° C | 77% | 1013.2 hPa | 0 mm | - | - | - |
| 1778072622 | 17.78° C | 76% | 1013.2 hPa | 0 mm | - | - | - |
| 1778071732 | 17.78° C | 77% | 1013.5 hPa | 0 mm | - | - | - |
| 1778070824 | 17.22° C | 79% | 1013.7 hPa | 0 mm | - | - | - |
| 1778069946 | 16.67° C | 83% | 1013.5 hPa | 0 mm | - | - | - |
| 1778069019 | 16.67° C | 82% | 1013.9 hPa | 0 mm | - | - | - |
| 1778068099 | 16.67° C | 83% | 1013.9 hPa | 0 mm | - | - | - |
| 1778067226 | 16.67° C | 82% | 1014.2 hPa | 0 mm | - | - | - |
| 1778066303 | 16.67° C | 83% | 1014 hPa | 0 mm | - | - | - |
| 1778065423 | 16.67° C | 83% | 1013.9 hPa | 0 mm | - | - | - |
| 1778064511 | 16.67° C | 83% | 1014 hPa | 0 mm | - | - | - |
| 1778063645 | 17.22° C | 82% | 1013.8 hPa | 0 mm | - | - | - |
| 1778062710 | 17.22° C | 81% | 1013.8 hPa | 0 mm | - | - | - |
| 1778061830 | 17.78° C | 80% | 1013.8 hPa | 0 mm | - | - | - |
| 1778060900 | 17.78° C | 79% | 1013.5 hPa | 0 mm | - | - | - |
| 1778060029 | 18.33° C | 79% | 1013.5 hPa | 0 mm | - | - | - |
| 1778059101 | 18.33° C | 78% | 1013.5 hPa | 0 mm | - | - | - |
* Rain latest hour (hover to see other rain measurements)
** Current wind speed in m/s (hover to see current wind gust speed)